sensor_id;sensor_type;location;lat;lon;timestamp;temperature;humidity
72762;SHT30;60886;55.034;73.150;2024-03-22T00:01:24;-8.02;78.26
72762;SHT30;60886;55.034;73.150;2024-03-22T00:04:25;-7.97;78.73
72762;SHT30;60886;55.034;73.150;2024-03-22T00:07:27;-7.87;79.01
72762;SHT30;60886;55.034;73.150;2024-03-22T00:10:28;-7.90;78.48
72762;SHT30;60886;55.034;73.150;2024-03-22T00:13:30;-7.99;77.85
72762;SHT30;60886;55.034;73.150;2024-03-22T00:16:39;-8.09;77.62
72762;SHT30;60886;55.034;73.150;2024-03-22T00:19:41;-8.30;76.69
72762;SHT30;60886;55.034;73.150;2024-03-22T00:22:42;-8.33;78.25
72762;SHT30;60886;55.034;73.150;2024-03-22T00:25:44;-8.35;78.85
72762;SHT30;60886;55.034;73.150;2024-03-22T00:28:45;-8.42;78.86
72762;SHT30;60886;55.034;73.150;2024-03-22T00:31:47;-8.48;79.19
72762;SHT30;60886;55.034;73.150;2024-03-22T00:34:48;-8.56;78.80
72762;SHT30;60886;55.034;73.150;2024-03-22T00:37:50;-8.69;79.16
72762;SHT30;60886;55.034;73.150;2024-03-22T00:40:51;-8.79;78.97
72762;SHT30;60886;55.034;73.150;2024-03-22T00:43:53;-8.77;79.69
72762;SHT30;60886;55.034;73.150;2024-03-22T00:46:54;-8.63;80.05
72762;SHT30;60886;55.034;73.150;2024-03-22T00:49:56;-8.56;79.96
72762;SHT30;60886;55.034;73.150;2024-03-22T00:52:57;-8.52;79.99
72762;SHT30;60886;55.034;73.150;2024-03-22T00:55:59;-8.40;80.23
72762;SHT30;60886;55.034;73.150;2024-03-22T00:59:01;-8.30;80.21
72762;SHT30;60886;55.034;73.150;2024-03-22T01:02:03;-8.32;79.55
72762;SHT30;60886;55.034;73.150;2024-03-22T01:05:05;-8.26;79.85
72762;SHT30;60886;55.034;73.150;2024-03-22T01:08:06;-8.19;80.16
72762;SHT30;60886;55.034;73.150;2024-03-22T01:11:08;-8.14;79.80
72762;SHT30;60886;55.034;73.150;2024-03-22T01:14:10;-8.08;79.69
72762;SHT30;60886;55.034;73.150;2024-03-22T01:17:11;-7.99;79.94
72762;SHT30;60886;55.034;73.150;2024-03-22T01:20:13;-7.99;79.42
72762;SHT30;60886;55.034;73.150;2024-03-22T01:23:14;-7.99;79.28
72762;SHT30;60886;55.034;73.150;2024-03-22T01:26:16;-7.98;79.23
72762;SHT30;60886;55.034;73.150;2024-03-22T01:29:17;-7.91;79.50
72762;SHT30;60886;55.034;73.150;2024-03-22T01:32:19;-7.84;79.11
72762;SHT30;60886;55.034;73.150;2024-03-22T01:35:20;-7.78;78.85
72762;SHT30;60886;55.034;73.150;2024-03-22T01:38:22;-7.73;78.62
72762;SHT30;60886;55.034;73.150;2024-03-22T01:41:24;-7.78;78.02
72762;SHT30;60886;55.034;73.150;2024-03-22T01:44:29;-7.77;78.02
72762;SHT30;60886;55.034;73.150;2024-03-22T01:47:32;-7.75;78.09
72762;SHT30;60886;55.034;73.150;2024-03-22T01:50:34;-7.70;78.44
72762;SHT30;60886;55.034;73.150;2024-03-22T01:53:37;-7.55;78.56
72762;SHT30;60886;55.034;73.150;2024-03-22T01:56:39;-7.48;78.18
72762;SHT30;60886;55.034;73.150;2024-03-22T01:59:41;-7.42;78.02
72762;SHT30;60886;55.034;73.150;2024-03-22T02:02:43;-7.36;77.39
72762;SHT30;60886;55.034;73.150;2024-03-22T02:05:44;-7.37;77.30
72762;SHT30;60886;55.034;73.150;2024-03-22T02:08:46;-7.33;77.55
72762;SHT30;60886;55.034;73.150;2024-03-22T02:11:48;-7.37;77.03
72762;SHT30;60886;55.034;73.150;2024-03-22T02:14:50;-7.24;77.18
72762;SHT30;60886;55.034;73.150;2024-03-22T02:17:52;-7.13;77.13
72762;SHT30;60886;55.034;73.150;2024-03-22T02:20:53;-7.08;77.10
72762;SHT30;60886;55.034;73.150;2024-03-22T02:23:55;-7.00;76.56
72762;SHT30;60886;55.034;73.150;2024-03-22T02:26:56;-6.88;76.38
72762;SHT30;60886;55.034;73.150;2024-03-22T02:29:58;-6.67;76.63
72762;SHT30;60886;55.034;73.150;2024-03-22T02:32:59;-6.51;75.77
72762;SHT30;60886;55.034;73.150;2024-03-22T02:36:01;-6.38;75.53
72762;SHT30;60886;55.034;73.150;2024-03-22T02:39:02;-6.35;74.88
72762;SHT30;60886;55.034;73.150;2024-03-22T02:42:04;-6.15;75.61
72762;SHT30;60886;55.034;73.150;2024-03-22T02:45:06;-6.04;74.67
72762;SHT30;60886;55.034;73.150;2024-03-22T02:48:08;-5.94;74.26
72762;SHT30;60886;55.034;73.150;2024-03-22T02:51:09;-6.04;74.05
72762;SHT30;60886;55.034;73.150;2024-03-22T02:54:11;-5.73;74.76
72762;SHT30;60886;55.034;73.150;2024-03-22T02:57:12;-5.49;74.62
72762;SHT30;60886;55.034;73.150;2024-03-22T03:00:14;-5.21;74.49
72762;SHT30;60886;55.034;73.150;2024-03-22T03:03:15;-4.97;73.98
72762;SHT30;60886;55.034;73.150;2024-03-22T03:06:17;-4.69;73.53
72762;SHT30;60886;55.034;73.150;2024-03-22T03:09:21;-4.40;72.71
72762;SHT30;60886;55.034;73.150;2024-03-22T03:12:23;-4.30;72.19
72762;SHT30;60886;55.034;73.150;2024-03-22T03:15:24;-4.30;71.81
72762;SHT30;60886;55.034;73.150;2024-03-22T03:18:26;-3.91;71.69
72762;SHT30;60886;55.034;73.150;2024-03-22T03:21:27;-3.67;71.63
72762;SHT30;60886;55.034;73.150;2024-03-22T03:24:29;-3.44;71.22
72762;SHT30;60886;55.034;73.150;2024-03-22T03:27:31;-3.23;70.51
72762;SHT30;60886;55.034;73.150;2024-03-22T03:30:34;-3.13;69.86
72762;SHT30;60886;55.034;73.150;2024-03-22T03:33:36;-2.92;69.82
72762;SHT30;60886;55.034;73.150;2024-03-22T03:36:39;-2.75;69.97
72762;SHT30;60886;55.034;73.150;2024-03-22T03:39:41;-2.51;69.23
72762;SHT30;60886;55.034;73.150;2024-03-22T03:42:45;-2.34;69.41
72762;SHT30;60886;55.034;73.150;2024-03-22T03:45:46;-2.27;68.51
72762;SHT30;60886;55.034;73.150;2024-03-22T03:48:50;-2.13;69.61
72762;SHT30;60886;55.034;73.150;2024-03-22T03:51:55;-1.90;68.78
72762;SHT30;60886;55.034;73.150;2024-03-22T03:54:56;-1.80;68.74
72762;SHT30;60886;55.034;73.150;2024-03-22T03:57:58;-1.84;67.56
72762;SHT30;60886;55.034;73.150;2024-03-22T04:01:07;-1.51;68.27
72762;SHT30;60886;55.034;73.150;2024-03-22T04:04:09;-1.28;67.71
72762;SHT30;60886;55.034;73.150;2024-03-22T04:07:10;-1.11;66.59
72762;SHT30;60886;55.034;73.150;2024-03-22T04:10:12;-0.81;66.90
72762;SHT30;60886;55.034;73.150;2024-03-22T04:13:14;-0.57;66.36
72762;SHT30;60886;55.034;73.150;2024-03-22T04:16:15;-0.29;65.67
72762;SHT30;60886;55.034;73.150;2024-03-22T04:19:17;0.18;63.75
72762;SHT30;60886;55.034;73.150;2024-03-22T04:22:18;0.53;61.88
72762;SHT30;60886;55.034;73.150;2024-03-22T04:25:20;0.76;61.19
72762;SHT30;60886;55.034;73.150;2024-03-22T04:28:21;0.72;63.29
72762;SHT30;60886;55.034;73.150;2024-03-22T04:31:23;0.92;61.41
72762;SHT30;60886;55.034;73.150;2024-03-22T04:34:25;1.13;61.42
72762;SHT30;60886;55.034;73.150;2024-03-22T04:37:26;0.79;62.53
72762;SHT30;60886;55.034;73.150;2024-03-22T04:40:28;0.83;62.89
72762;SHT30;60886;55.034;73.150;2024-03-22T04:43:31;0.65;62.77
72762;SHT30;60886;55.034;73.150;2024-03-22T04:46:39;1.08;62.12
72762;SHT30;60886;55.034;73.150;2024-03-22T04:49:40;1.48;59.87
72762;SHT30;60886;55.034;73.150;2024-03-22T04:52:42;1.82;58.89
72762;SHT30;60886;55.034;73.150;2024-03-22T04:55:44;1.86;60.22
72762;SHT30;60886;55.034;73.150;2024-03-22T04:58:48;1.78;60.70
72762;SHT30;60886;55.034;73.150;2024-03-22T05:01:50;1.79;59.22
72762;SHT30;60886;55.034;73.150;2024-03-22T05:04:52;1.82;60.16
72762;SHT30;60886;55.034;73.150;2024-03-22T05:07:55;1.88;59.92
72762;SHT30;60886;55.034;73.150;2024-03-22T05:10:56;1.62;61.03
72762;SHT30;60886;55.034;73.150;2024-03-22T05:13:58;1.99;61.46
72762;SHT30;60886;55.034;73.150;2024-03-22T05:17:00;2.39;60.37
72762;SHT30;60886;55.034;73.150;2024-03-22T05:20:01;2.49;59.25
72762;SHT30;60886;55.034;73.150;2024-03-22T05:23:05;2.49;59.45
72762;SHT30;60886;55.034;73.150;2024-03-22T05:26:07;2.50;59.25
72762;SHT30;60886;55.034;73.150;2024-03-22T05:29:08;2.03;59.14
72762;SHT30;60886;55.034;73.150;2024-03-22T05:32:10;1.86;60.64
72762;SHT30;60886;55.034;73.150;2024-03-22T05:35:12;2.06;60.40
72762;SHT30;60886;55.034;73.150;2024-03-22T05:38:14;2.16;60.53
72762;SHT30;60886;55.034;73.150;2024-03-22T05:41:15;2.26;60.72
72762;SHT30;60886;55.034;73.150;2024-03-22T05:44:17;2.16;59.72
72762;SHT30;60886;55.034;73.150;2024-03-22T05:47:19;1.45;60.17
72762;SHT30;60886;55.034;73.150;2024-03-22T05:50:21;1.38;61.84
72762;SHT30;60886;55.034;73.150;2024-03-22T05:53:23;1.41;62.66
72762;SHT30;60886;55.034;73.150;2024-03-22T05:56:25;1.44;62.13
72762;SHT30;60886;55.034;73.150;2024-03-22T05:59:27;1.55;61.95
72762;SHT30;60886;55.034;73.150;2024-03-22T06:02:29;1.64;62.28
72762;SHT30;60886;55.034;73.150;2024-03-22T06:05:30;1.66;62.98
72762;SHT30;60886;55.034;73.150;2024-03-22T06:08:32;1.64;61.79
72762;SHT30;60886;55.034;73.150;2024-03-22T06:11:39;1.65;61.93
72762;SHT30;60886;55.034;73.150;2024-03-22T06:14:45;1.72;62.50
72762;SHT30;60886;55.034;73.150;2024-03-22T06:17:49;1.59;61.18
72762;SHT30;60886;55.034;73.150;2024-03-22T06:20:52;1.66;61.76
72762;SHT30;60886;55.034;73.150;2024-03-22T06:23:56;1.65;61.71
72762;SHT30;60886;55.034;73.150;2024-03-22T06:26:57;1.86;62.13
72762;SHT30;60886;55.034;73.150;2024-03-22T06:29:59;1.99;61.82
72762;SHT30;60886;55.034;73.150;2024-03-22T06:33:01;2.02;62.22
72762;SHT30;60886;55.034;73.150;2024-03-22T06:36:02;2.12;62.42
72762;SHT30;60886;55.034;73.150;2024-03-22T06:39:07;2.26;62.04
72762;SHT30;60886;55.034;73.150;2024-03-22T06:42:11;2.33;63.11
72762;SHT30;60886;55.034;73.150;2024-03-22T06:45:13;2.34;61.71
72762;SHT30;60886;55.034;73.150;2024-03-22T06:48:14;2.49;61.88
72762;SHT30;60886;55.034;73.150;2024-03-22T06:51:16;2.54;61.66
72762;SHT30;60886;55.034;73.150;2024-03-22T06:54:18;2.47;60.92
72762;SHT30;60886;55.034;73.150;2024-03-22T06:57:20;2.36;61.30
72762;SHT30;60886;55.034;73.150;2024-03-22T07:00:21;2.43;61.15
72762;SHT30;60886;55.034;73.150;2024-03-22T07:03:24;2.65;61.75
72762;SHT30;60886;55.034;73.150;2024-03-22T07:06:25;2.68;61.34
72762;SHT30;60886;55.034;73.150;2024-03-22T07:09:27;2.81;60.27
72762;SHT30;60886;55.034;73.150;2024-03-22T07:12:34;2.87;60.57
72762;SHT30;60886;55.034;73.150;2024-03-22T07:15:35;2.84;59.71
72762;SHT30;60886;55.034;73.150;2024-03-22T07:18:37;2.98;60.16
72762;SHT30;60886;55.034;73.150;2024-03-22T07:21:39;2.95;60.56
72762;SHT30;60886;55.034;73.150;2024-03-22T07:24:40;3.04;59.47
72762;SHT30;60886;55.034;73.150;2024-03-22T07:27:42;3.05;60.50
72762;SHT30;60886;55.034;73.150;2024-03-22T07:30:43;3.14;60.19
72762;SHT30;60886;55.034;73.150;2024-03-22T07:33:45;3.25;59.09
72762;SHT30;60886;55.034;73.150;2024-03-22T07:36:47;3.38;59.82
72762;SHT30;60886;55.034;73.150;2024-03-22T07:39:49;3.69;59.77
72762;SHT30;60886;55.034;73.150;2024-03-22T07:42:51;3.85;58.56
72762;SHT30;60886;55.034;73.150;2024-03-22T07:45:52;4.04;58.77
72762;SHT30;60886;55.034;73.150;2024-03-22T07:48:54;3.93;57.95
72762;SHT30;60886;55.034;73.150;2024-03-22T07:51:55;3.94;58.54
72762;SHT30;60886;55.034;73.150;2024-03-22T07:54:57;4.14;57.46
72762;SHT30;60886;55.034;73.150;2024-03-22T07:57:58;4.11;57.58
72762;SHT30;60886;55.034;73.150;2024-03-22T08:01:00;4.21;57.86
72762;SHT30;60886;55.034;73.150;2024-03-22T08:04:04;3.91;58.12
72762;SHT30;60886;55.034;73.150;2024-03-22T08:07:06;4.00;57.83
72762;SHT30;60886;55.034;73.150;2024-03-22T08:10:08;4.16;58.04
72762;SHT30;60886;55.034;73.150;2024-03-22T08:13:10;4.07;57.37
72762;SHT30;60886;55.034;73.150;2024-03-22T08:16:12;3.69;58.59
72762;SHT30;60886;55.034;73.150;2024-03-22T08:19:13;3.63;58.65
72762;SHT30;60886;55.034;73.150;2024-03-22T08:22:15;3.67;59.10
72762;SHT30;60886;55.034;73.150;2024-03-22T08:25:17;3.66;59.69
72762;SHT30;60886;55.034;73.150;2024-03-22T08:28:19;3.73;58.90
72762;SHT30;60886;55.034;73.150;2024-03-22T08:31:21;3.72;58.47
72762;SHT30;60886;55.034;73.150;2024-03-22T08:34:28;3.96;58.72
72762;SHT30;60886;55.034;73.150;2024-03-22T08:37:30;4.03;58.56
72762;SHT30;60886;55.034;73.150;2024-03-22T08:40:32;4.21;58.88
72762;SHT30;60886;55.034;73.150;2024-03-22T08:43:34;4.24;59.75
72762;SHT30;60886;55.034;73.150;2024-03-22T08:46:39;4.48;58.00
72762;SHT30;60886;55.034;73.150;2024-03-22T08:49:40;4.69;57.71
72762;SHT30;60886;55.034;73.150;2024-03-22T08:52:45;4.79;57.32
72762;SHT30;60886;55.034;73.150;2024-03-22T08:55:49;4.57;57.88
72762;SHT30;60886;55.034;73.150;2024-03-22T08:58:50;4.65;58.34
72762;SHT30;60886;55.034;73.150;2024-03-22T09:01:52;4.71;57.32
72762;SHT30;60886;55.034;73.150;2024-03-22T09:04:54;4.89;57.77
72762;SHT30;60886;55.034;73.150;2024-03-22T09:07:55;4.81;58.06
72762;SHT30;60886;55.034;73.150;2024-03-22T09:10:58;4.91;57.52
72762;SHT30;60886;55.034;73.150;2024-03-22T09:14:00;4.78;57.67
72762;SHT30;60886;55.034;73.150;2024-03-22T09:17:01;4.64;59.29
72762;SHT30;60886;55.034;73.150;2024-03-22T09:20:03;4.84;58.02
72762;SHT30;60886;55.034;73.150;2024-03-22T09:23:06;5.04;57.01
72762;SHT30;60886;55.034;73.150;2024-03-22T09:26:07;5.05;56.21
72762;SHT30;60886;55.034;73.150;2024-03-22T09:29:09;4.95;56.82
72762;SHT30;60886;55.034;73.150;2024-03-22T09:32:10;5.05;56.57
72762;SHT30;60886;55.034;73.150;2024-03-22T09:35:12;5.02;58.50
72762;SHT30;60886;55.034;73.150;2024-03-22T09:38:18;4.89;58.00
72762;SHT30;60886;55.034;73.150;2024-03-22T09:41:24;4.82;57.38
72762;SHT30;60886;55.034;73.150;2024-03-22T09:44:27;4.85;56.67
72762;SHT30;60886;55.034;73.150;2024-03-22T09:47:30;4.41;57.65
72762;SHT30;60886;55.034;73.150;2024-03-22T09:50:32;4.41;58.91
72762;SHT30;60886;55.034;73.150;2024-03-22T09:53:34;4.20;58.35
72762;SHT30;60886;55.034;73.150;2024-03-22T09:56:39;3.73;57.13
72762;SHT30;60886;55.034;73.150;2024-03-22T09:59:42;3.85;58.02
72762;SHT30;60886;55.034;73.150;2024-03-22T10:02:46;3.91;57.31
72762;SHT30;60886;55.034;73.150;2024-03-22T10:05:48;4.01;58.08
72762;SHT30;60886;55.034;73.150;2024-03-22T10:08:59;3.82;58.99
72762;SHT30;60886;55.034;73.150;2024-03-22T10:12:01;3.94;57.52
72762;SHT30;60886;55.034;73.150;2024-03-22T10:15:04;3.85;57.32
72762;SHT30;60886;55.034;73.150;2024-03-22T10:18:06;3.72;56.98
72762;SHT30;60886;55.034;73.150;2024-03-22T10:21:08;3.65;59.10
72762;SHT30;60886;55.034;73.150;2024-03-22T10:24:10;3.59;59.04
72762;SHT30;60886;55.034;73.150;2024-03-22T10:27:11;3.60;58.47
72762;SHT30;60886;55.034;73.150;2024-03-22T10:30:15;3.46;59.10
72762;SHT30;60886;55.034;73.150;2024-03-22T10:33:21;3.31;58.36
72762;SHT30;60886;55.034;73.150;2024-03-22T10:36:27;3.12;59.24
72762;SHT30;60886;55.034;73.150;2024-03-22T10:39:30;2.68;60.01
72762;SHT30;60886;55.034;73.150;2024-03-22T10:42:32;2.74;60.54
72762;SHT30;60886;55.034;73.150;2024-03-22T10:45:36;2.67;60.29
72762;SHT30;60886;55.034;73.150;2024-03-22T10:48:39;2.30;61.15
72762;SHT30;60886;55.034;73.150;2024-03-22T10:51:53;2.37;61.01
72762;SHT30;60886;55.034;73.150;2024-03-22T10:54:56;2.43;60.84
72762;SHT30;60886;55.034;73.150;2024-03-22T10:57:58;2.50;61.21
72762;SHT30;60886;55.034;73.150;2024-03-22T11:01:00;2.16;61.64
72762;SHT30;60886;55.034;73.150;2024-03-22T11:04:06;1.62;62.29
72762;SHT30;60886;55.034;73.150;2024-03-22T11:07:20;1.71;63.74
72762;SHT30;60886;55.034;73.150;2024-03-22T11:10:28;1.55;63.30
72762;SHT30;60886;55.034;73.150;2024-03-22T11:13:36;1.48;64.05
72762;SHT30;60886;55.034;73.150;2024-03-22T11:16:43;1.51;64.42
72762;SHT30;60886;55.034;73.150;2024-03-22T11:19:45;1.59;64.34
72762;SHT30;60886;55.034;73.150;2024-03-22T11:22:47;1.81;64.07
72762;SHT30;60886;55.034;73.150;2024-03-22T11:25:48;1.79;64.15
72762;SHT30;60886;55.034;73.150;2024-03-22T11:28:51;1.56;63.63
72762;SHT30;60886;55.034;73.150;2024-03-22T11:31:52;1.65;64.41
72762;SHT30;60886;55.034;73.150;2024-03-22T11:34:54;1.55;64.94
72762;SHT30;60886;55.034;73.150;2024-03-22T11:37:56;1.45;65.01
72762;SHT30;60886;55.034;73.150;2024-03-22T11:41:02;1.30;65.00
72762;SHT30;60886;55.034;73.150;2024-03-22T11:44:04;1.33;65.39
72762;SHT30;60886;55.034;73.150;2024-03-22T11:47:06;1.31;65.86
72762;SHT30;60886;55.034;73.150;2024-03-22T11:50:11;1.19;65.89
72762;SHT30;60886;55.034;73.150;2024-03-22T11:53:16;1.20;66.32
72762;SHT30;60886;55.034;73.150;2024-03-22T11:56:19;0.99;66.58
72762;SHT30;60886;55.034;73.150;2024-03-22T11:59:21;0.89;67.43
72762;SHT30;60886;55.034;73.150;2024-03-22T12:02:23;1.10;67.54
72762;SHT30;60886;55.034;73.150;2024-03-22T12:05:24;1.07;66.55
72762;SHT30;60886;55.034;73.150;2024-03-22T12:08:28;1.07;67.14
72762;SHT30;60886;55.034;73.150;2024-03-22T12:11:39;1.23;67.18
72762;SHT30;60886;55.034;73.150;2024-03-22T12:14:56;1.38;67.20
72762;SHT30;60886;55.034;73.150;2024-03-22T12:18:12;1.23;66.64
72762;SHT30;60886;55.034;73.150;2024-03-22T12:21:14;1.19;66.93
72762;SHT30;60886;55.034;73.150;2024-03-22T12:24:36;1.03;67.17
72762;SHT30;60886;55.034;73.150;2024-03-22T12:27:38;1.17;67.22
72762;SHT30;60886;55.034;73.150;2024-03-22T12:30:39;1.03;67.07
72762;SHT30;60886;55.034;73.150;2024-03-22T12:33:41;1.03;67.91
72762;SHT30;60886;55.034;73.150;2024-03-22T12:36:43;1.00;67.87
72762;SHT30;60886;55.034;73.150;2024-03-22T12:40:00;0.89;67.26
72762;SHT30;60886;55.034;73.150;2024-03-22T12:43:02;0.72;67.88
72762;SHT30;60886;55.034;73.150;2024-03-22T12:46:04;0.49;68.20
72762;SHT30;60886;55.034;73.150;2024-03-22T12:49:06;0.35;68.95
72762;SHT30;60886;55.034;73.150;2024-03-22T12:52:07;0.19;69.33
72762;SHT30;60886;55.034;73.150;2024-03-22T12:55:10;0.12;69.97
72762;SHT30;60886;55.034;73.150;2024-03-22T12:58:11;-0.02;69.90
72762;SHT30;60886;55.034;73.150;2024-03-22T13:01:13;-0.19;70.39
72762;SHT30;60886;55.034;73.150;2024-03-22T13:04:23;-0.37;70.67
72762;SHT30;60886;55.034;73.150;2024-03-22T13:07:25;-0.37;70.81
72762;SHT30;60886;55.034;73.150;2024-03-22T13:10:27;-0.43;71.11
72762;SHT30;60886;55.034;73.150;2024-03-22T13:13:28;-0.52;71.01
72762;SHT30;60886;55.034;73.150;2024-03-22T13:16:42;-0.56;71.67
72762;SHT30;60886;55.034;73.150;2024-03-22T13:19:47;-0.60;71.40
72762;SHT30;60886;55.034;73.150;2024-03-22T13:23:06;-0.68;71.60
72762;SHT30;60886;55.034;73.150;2024-03-22T13:26:09;-0.81;71.57
72762;SHT30;60886;55.034;73.150;2024-03-22T13:29:11;-0.90;71.82
72762;SHT30;60886;55.034;73.150;2024-03-22T13:32:15;-1.04;71.94
72762;SHT30;60886;55.034;73.150;2024-03-22T13:35:26;-1.13;72.16
72762;SHT30;60886;55.034;73.150;2024-03-22T13:38:28;-1.25;72.25
72762;SHT30;60886;55.034;73.150;2024-03-22T13:41:39;-1.27;72.85
72762;SHT30;60886;55.034;73.150;2024-03-22T13:45:00;-1.34;72.64
72762;SHT30;60886;55.034;73.150;2024-03-22T13:48:10;-1.38;73.14
72762;SHT30;60886;55.034;73.150;2024-03-22T13:51:14;-1.43;73.03
72762;SHT30;60886;55.034;73.150;2024-03-22T13:54:15;-1.48;73.28
72762;SHT30;60886;55.034;73.150;2024-03-22T13:57:17;-1.56;73.15
72762;SHT30;60886;55.034;73.150;2024-03-22T14:00:19;-1.62;73.12
72762;SHT30;60886;55.034;73.150;2024-03-22T14:03:20;-1.67;73.32
72762;SHT30;60886;55.034;73.150;2024-03-22T14:06:22;-1.74;73.47
72762;SHT30;60886;55.034;73.150;2024-03-22T14:09:23;-1.80;73.74
72762;SHT30;60886;55.034;73.150;2024-03-22T14:12:24;-1.86;73.62
72762;SHT30;60886;55.034;73.150;2024-03-22T14:15:26;-1.91;73.76
72762;SHT30;60886;55.034;73.150;2024-03-22T14:18:32;-1.94;74.15
72762;SHT30;60886;55.034;73.150;2024-03-22T14:21:38;-2.01;74.20
72762;SHT30;60886;55.034;73.150;2024-03-22T14:24:40;-2.08;74.06
72762;SHT30;60886;55.034;73.150;2024-03-22T14:27:42;-2.17;74.35
72762;SHT30;60886;55.034;73.150;2024-03-22T14:30:46;-2.23;74.18
72762;SHT30;60886;55.034;73.150;2024-03-22T14:33:48;-2.31;74.35
72762;SHT30;60886;55.034;73.150;2024-03-22T14:36:50;-2.33;74.62
72762;SHT30;60886;55.034;73.150;2024-03-22T14:39:52;-2.42;74.60
72762;SHT30;60886;55.034;73.150;2024-03-22T14:42:54;-2.47;74.95
72762;SHT30;60886;55.034;73.150;2024-03-22T14:45:55;-2.49;75.07
72762;SHT30;60886;55.034;73.150;2024-03-22T14:48:57;-2.49;75.17
72762;SHT30;60886;55.034;73.150;2024-03-22T14:51:58;-2.54;74.66
72762;SHT30;60886;55.034;73.150;2024-03-22T14:55:00;-2.55;74.93
72762;SHT30;60886;55.034;73.150;2024-03-22T14:58:01;-2.55;74.96
72762;SHT30;60886;55.034;73.150;2024-03-22T15:01:04;-2.52;74.68
72762;SHT30;60886;55.034;73.150;2024-03-22T15:04:06;-2.58;74.76
72762;SHT30;60886;55.034;73.150;2024-03-22T15:07:09;-2.59;74.48
72762;SHT30;60886;55.034;73.150;2024-03-22T15:10:10;-2.58;74.58
72762;SHT30;60886;55.034;73.150;2024-03-22T15:13:14;-2.66;74.54
72762;SHT30;60886;55.034;73.150;2024-03-22T15:16:16;-2.72;74.42
72762;SHT30;60886;55.034;73.150;2024-03-22T15:19:18;-2.72;74.51
72762;SHT30;60886;55.034;73.150;2024-03-22T15:22:19;-2.72;74.28
72762;SHT30;60886;55.034;73.150;2024-03-22T15:25:21;-2.69;74.56
72762;SHT30;60886;55.034;73.150;2024-03-22T15:28:22;-2.65;74.53
72762;SHT30;60886;55.034;73.150;2024-03-22T15:31:24;-2.66;73.98
72762;SHT30;60886;55.034;73.150;2024-03-22T15:34:26;-2.73;74.16
72762;SHT30;60886;55.034;73.150;2024-03-22T15:37:27;-2.68;74.54
72762;SHT30;60886;55.034;73.150;2024-03-22T15:40:30;-2.72;74.04
72762;SHT30;60886;55.034;73.150;2024-03-22T15:43:33;-2.71;74.14
72762;SHT30;60886;55.034;73.150;2024-03-22T15:46:38;-2.73;74.33
72762;SHT30;60886;55.034;73.150;2024-03-22T15:49:40;-2.72;74.25
72762;SHT30;60886;55.034;73.150;2024-03-22T15:52:42;-2.71;74.21
72762;SHT30;60886;55.034;73.150;2024-03-22T15:55:43;-2.68;74.05
72762;SHT30;60886;55.034;73.150;2024-03-22T15:58:45;-2.68;73.85
72762;SHT30;60886;55.034;73.150;2024-03-22T16:01:46;-2.76;73.91
72762;SHT30;60886;55.034;73.150;2024-03-22T16:04:55;-2.72;73.90
72762;SHT30;60886;55.034;73.150;2024-03-22T16:08:00;-2.72;73.55
72762;SHT30;60886;55.034;73.150;2024-03-22T16:11:01;-2.78;73.52
72762;SHT30;60886;55.034;73.150;2024-03-22T16:14:03;-2.81;73.99
72762;SHT30;60886;55.034;73.150;2024-03-22T16:17:05;-2.88;73.68
72762;SHT30;60886;55.034;73.150;2024-03-22T16:20:09;-2.91;73.65
72762;SHT30;60886;55.034;73.150;2024-03-22T16:23:12;-2.92;73.82
72762;SHT30;60886;55.034;73.150;2024-03-22T16:26:13;-2.91;73.77
72762;SHT30;60886;55.034;73.150;2024-03-22T16:29:16;-2.89;73.72
72762;SHT30;60886;55.034;73.150;2024-03-22T16:32:19;-2.89;73.55
72762;SHT30;60886;55.034;73.150;2024-03-22T16:35:21;-2.95;73.23
72762;SHT30;60886;55.034;73.150;2024-03-22T16:38:25;-2.91;73.23
72762;SHT30;60886;55.034;73.150;2024-03-22T16:41:27;-2.93;73.11
72762;SHT30;60886;55.034;73.150;2024-03-22T16:44:31;-2.95;73.01
72762;SHT30;60886;55.034;73.150;2024-03-22T16:47:34;-3.04;73.15
72762;SHT30;60886;55.034;73.150;2024-03-22T16:50:36;-3.04;73.17
72762;SHT30;60886;55.034;73.150;2024-03-22T16:53:38;-3.07;73.16
72762;SHT30;60886;55.034;73.150;2024-03-22T16:56:39;-3.10;73.10
72762;SHT30;60886;55.034;73.150;2024-03-22T16:59:43;-3.09;73.12
72762;SHT30;60886;55.034;73.150;2024-03-22T17:02:45;-3.06;73.35
72762;SHT30;60886;55.034;73.150;2024-03-22T17:05:47;-3.17;73.34
72762;SHT30;60886;55.034;73.150;2024-03-22T17:08:48;-3.17;73.64
72762;SHT30;60886;55.034;73.150;2024-03-22T17:11:50;-3.17;73.36
72762;SHT30;60886;55.034;73.150;2024-03-22T17:14:51;-3.21;73.38
72762;SHT30;60886;55.034;73.150;2024-03-22T17:17:53;-3.29;73.63
72762;SHT30;60886;55.034;73.150;2024-03-22T17:20:55;-3.24;73.85
72762;SHT30;60886;55.034;73.150;2024-03-22T17:23:56;-3.24;73.59
72762;SHT30;60886;55.034;73.150;2024-03-22T17:26:58;-3.27;73.46
72762;SHT30;60886;55.034;73.150;2024-03-22T17:29:59;-3.32;73.75
72762;SHT30;60886;55.034;73.150;2024-03-22T17:33:02;-3.27;73.93
72762;SHT30;60886;55.034;73.150;2024-03-22T17:36:04;-3.26;73.33
72762;SHT30;60886;55.034;73.150;2024-03-22T17:39:06;-3.21;73.42
72762;SHT30;60886;55.034;73.150;2024-03-22T17:42:07;-3.27;73.77
72762;SHT30;60886;55.034;73.150;2024-03-22T17:45:09;-3.29;73.44
72762;SHT30;60886;55.034;73.150;2024-03-22T17:48:10;-3.30;73.83
72762;SHT30;60886;55.034;73.150;2024-03-22T17:51:12;-3.36;73.90
72762;SHT30;60886;55.034;73.150;2024-03-22T17:54:14;-3.32;73.81
72762;SHT30;60886;55.034;73.150;2024-03-22T17:57:16;-3.33;73.85
72762;SHT30;60886;55.034;73.150;2024-03-22T18:00:17;-3.33;73.74
72762;SHT30;60886;55.034;73.150;2024-03-22T18:03:19;-3.44;73.87
72762;SHT30;60886;55.034;73.150;2024-03-22T18:06:20;-3.47;74.15
72762;SHT30;60886;55.034;73.150;2024-03-22T18:09:22;-3.53;74.05
72762;SHT30;60886;55.034;73.150;2024-03-22T18:12:24;-3.56;74.40
72762;SHT30;60886;55.034;73.150;2024-03-22T18:15:26;-3.50;74.55
72762;SHT30;60886;55.034;73.150;2024-03-22T18:18:27;-3.54;74.22
72762;SHT30;60886;55.034;73.150;2024-03-22T18:21:38;-3.58;74.18
72762;SHT30;60886;55.034;73.150;2024-03-22T18:24:43;-3.61;74.01
72762;SHT30;60886;55.034;73.150;2024-03-22T18:27:45;-3.64;74.36
72762;SHT30;60886;55.034;73.150;2024-03-22T18:30:47;-3.71;74.39
72762;SHT30;60886;55.034;73.150;2024-03-22T18:33:48;-3.77;74.80
72762;SHT30;60886;55.034;73.150;2024-03-22T18:36:50;-3.67;74.75
72762;SHT30;60886;55.034;73.150;2024-03-22T18:39:52;-3.77;74.58
72762;SHT30;60886;55.034;73.150;2024-03-22T18:43:00;-3.84;74.94
72762;SHT30;60886;55.034;73.150;2024-03-22T18:46:01;-3.89;74.99
72762;SHT30;60886;55.034;73.150;2024-03-22T18:49:05;-3.91;75.10
72762;SHT30;60886;55.034;73.150;2024-03-22T18:52:06;-3.87;74.99
72762;SHT30;60886;55.034;73.150;2024-03-22T18:55:08;-3.95;74.94
72762;SHT30;60886;55.034;73.150;2024-03-22T18:58:10;-3.92;75.03
72762;SHT30;60886;55.034;73.150;2024-03-22T19:01:11;-3.98;75.15
72762;SHT30;60886;55.034;73.150;2024-03-22T19:04:13;-4.06;74.98